Time;durP1;ratioP1;P1;durP2;ratioP2;P2;SDS_P1;SDS_P2;PMS_P1;PMS_P2;Temp;Humidity;BMP_temperature;BMP_pressure;BME280_temperature;BME280_humidity;BME280_pressure;Samples;Min_cycle;Max_cycle;Signal;HPM_P1;HPM_P2
2022/05/22 00:01:21;;;;;;;2.97;1.30;;;13.20;99.90;;;;;;4773056;30;20207;-80
2022/05/22 00:03:47;;;;;;;3.72;1.13;;;13.30;99.90;;;;;;4772690;30;20184;-82
2022/05/22 00:06:12;;;;;;;3.70;1.30;;;13.20;99.90;;;;;;4773158;30;20225;-87
2022/05/22 00:08:38;;;;;;;3.20;1.17;;;13.20;99.90;;;;;;4773021;30;20195;-83
2022/05/22 00:11:03;;;;;;;3.20;1.25;;;13.10;99.90;;;;;;4771928;29;20192;-82
2022/05/22 00:13:29;;;;;;;5.68;1.60;;;13.20;99.90;;;;;;4786766;29;20184;-84
2022/05/22 00:18:39;;;;;;;3.53;1.23;;;13.10;99.90;;;;;;4790767;30;20218;-87
2022/05/22 00:21:07;;;;;;;5.45;1.42;;;13.00;99.90;;;;;;4790891;29;20628;-82
2022/05/22 00:23:33;;;;;;;5.90;1.48;;;13.00;99.90;;;;;;4790330;29;20175;-85
2022/05/22 00:25:59;;;;;;;7.10;1.50;;;13.00;99.90;;;;;;4790660;29;20207;-82
2022/05/22 00:28:25;;;;;;;3.83;1.33;;;13.00;99.90;;;;;;4804566;29;20188;-80
2022/05/22 00:30:50;;;;;;;4.15;1.25;;;13.00;99.90;;;;;;4804531;29;20194;-86
2022/05/22 00:33:16;;;;;;;4.22;1.25;;;13.00;99.90;;;;;;4803369;29;20194;-84
2022/05/22 00:35:42;;;;;;;3.00;1.30;;;12.90;99.90;;;;;;4790397;29;20182;-86
2022/05/22 00:38:11;;;;;;;4.18;1.20;;;12.90;99.90;;;;;;4804210;29;20188;-82
2022/05/22 00:40:36;;;;;;;4.32;1.15;;;12.80;99.90;;;;;;4790375;29;20186;-83
2022/05/22 00:43:02;;;;;;;4.85;1.65;;;12.80;99.90;;;;;;4804304;29;20278;-81
2022/05/22 00:45:28;;;;;;;2.97;1.25;;;12.70;99.90;;;;;;4789938;29;20268;-81
2022/05/22 00:47:54;;;;;;;2.78;1.05;;;12.60;99.90;;;;;;4789914;29;20191;-82
2022/05/22 00:50:22;;;;;;;2.40;1.08;;;12.60;99.90;;;;;;4803921;29;20191;-81
2022/05/22 00:52:54;;;;;;;7.07;1.35;;;12.50;99.90;;;;;;4803464;29;20234;-82
2022/05/22 00:55:28;;;;;;;7.10;1.25;;;12.50;99.90;;;;;;4803959;29;20194;-86
2022/05/22 00:57:58;;;;;;;3.70;1.00;;;12.50;99.90;;;;;;4790351;29;20174;-83
2022/05/22 01:00:28;;;;;;;3.47;1.23;;;12.40;99.90;;;;;;4803865;29;20189;-85
2022/05/22 01:05:42;;;;;;;4.45;1.27;;;12.40;99.90;;;;;;4789889;30;20650;-81
2022/05/22 01:08:08;;;;;;;3.78;1.10;;;12.30;99.90;;;;;;4789895;29;20183;-82
2022/05/22 01:10:43;;;;;;;4.35;1.25;;;12.30;99.90;;;;;;4789992;29;20190;-84
2022/05/22 01:13:11;;;;;;;2.92;0.98;;;12.30;99.90;;;;;;4789715;29;20210;-81
2022/05/22 01:15:37;;;;;;;4.40;1.40;;;12.30;99.90;;;;;;4803148;29;20198;-81
2022/05/22 01:18:03;;;;;;;6.40;1.50;;;12.20;99.90;;;;;;4789393;29;20541;-82
2022/05/22 01:20:29;;;;;;;3.45;1.15;;;12.20;99.90;;;;;;4803544;29;20188;-84
2022/05/22 01:22:54;;;;;;;7.72;1.30;;;12.20;99.90;;;;;;4803626;29;20274;-84
2022/05/22 01:25:20;;;;;;;7.03;1.15;;;12.10;99.90;;;;;;4803251;29;20267;-82
2022/05/22 01:27:46;;;;;;;7.03;1.15;;;12.10;99.90;;;;;;4803324;29;20210;-82
2022/05/22 01:30:17;;;;;;;2.38;0.93;;;12.10;99.90;;;;;;4789527;29;20179;-81
2022/05/22 01:32:45;;;;;;;6.25;1.35;;;12.10;99.90;;;;;;4789273;29;20187;-82
2022/05/22 01:35:15;;;;;;;5.50;1.30;;;12.20;99.90;;;;;;4803207;29;20263;-81
2022/05/22 01:37:41;;;;;;;2.97;1.25;;;12.10;99.90;;;;;;4803581;29;20584;-82
2022/05/22 01:40:09;;;;;;;2.40;1.00;;;12.10;99.90;;;;;;4803266;29;20195;-83
2022/05/22 01:42:35;;;;;;;3.38;1.25;;;12.00;99.90;;;;;;4802955;29;20611;-81
2022/05/22 01:45:03;;;;;;;2.17;0.98;;;12.00;99.90;;;;;;4789093;29;20593;-80
2022/05/22 01:47:32;;;;;;;2.50;1.00;;;12.00;99.90;;;;;;4802895;29;20543;-82
2022/05/22 01:49:58;;;;;;;5.30;1.50;;;11.90;99.90;;;;;;4788004;30;20627;-81
2022/05/22 01:52:24;;;;;;;6.32;1.25;;;11.90;99.90;;;;;;4802917;29;20234;-80
2022/05/22 01:54:49;;;;;;;6.28;1.30;;;11.90;99.90;;;;;;4789007;29;20254;-81
2022/05/22 01:57:15;;;;;;;6.70;1.40;;;11.90;99.90;;;;;;4803103;29;20214;-81
2022/05/22 01:59:41;;;;;;;4.38;1.50;;;11.90;99.90;;;;;;4803020;29;20267;-81
2022/05/22 02:02:07;;;;;;;5.28;1.10;;;11.80;99.90;;;;;;4802741;29;20191;-81
2022/05/22 02:04:33;;;;;;;3.55;1.15;;;11.80;99.90;;;;;;4802904;29;20195;-82
2022/05/22 02:09:43;;;;;;;8.38;1.45;;;11.70;99.90;;;;;;4789076;30;20661;-82
2022/05/22 02:12:09;;;;;;;2.25;1.10;;;11.70;99.90;;;;;;4802835;29;20187;-80
2022/05/22 02:14:34;;;;;;;5.13;1.20;;;11.70;99.90;;;;;;4802805;29;20184;-81
2022/05/22 02:17:00;;;;;;;5.05;1.30;;;11.80;99.90;;;;;;4789015;29;20530;-81
2022/05/22 02:19:26;;;;;;;3.45;1.10;;;11.80;99.90;;;;;;4788845;29;20183;-82
2022/05/22 02:21:51;;;;;;;3.22;1.20;;;11.80;99.90;;;;;;4802822;29;20187;-80
2022/05/22 02:24:17;;;;;;;6.47;1.10;;;11.70;99.90;;;;;;4802611;29;20600;-81
2022/05/22 02:26:43;;;;;;;3.38;1.50;;;11.70;99.90;;;;;;4802804;29;20277;-83
2022/05/22 02:29:09;;;;;;;7.05;1.40;;;11.60;99.90;;;;;;4789071;29;20205;-81
2022/05/22 02:31:35;;;;;;;4.60;1.20;;;11.60;99.90;;;;;;4788957;29;20266;-81
2022/05/22 02:34:00;;;;;;;7.90;1.42;;;11.60;99.90;;;;;;4802415;29;20653;-81
2022/05/22 02:36:27;;;;;;;7.32;1.33;;;11.50;99.90;;;;;;4787766;29;20184;-81
2022/05/22 02:38:53;;;;;;;3.60;1.13;;;11.50;99.90;;;;;;4783909;29;20184;-81
2022/05/22 02:41:20;;;;;;;6.03;1.42;;;11.50;99.90;;;;;;4771042;30;20269;-81
2022/05/22 02:43:46;;;;;;;3.33;1.25;;;11.50;99.90;;;;;;4784640;29;20180;-81
2022/05/22 02:46:14;;;;;;;6.05;1.58;;;11.50;99.90;;;;;;4770756;30;20212;-81
2022/05/22 02:48:42;;;;;;;4.93;1.40;;;11.50;99.90;;;;;;4753148;30;20252;-81
2022/05/22 02:51:16;;;;;;;7.00;1.50;;;11.50;99.90;;;;;;4751906;30;20254;-81
2022/05/22 02:53:42;;;;;;;3.10;1.30;;;11.50;99.90;;;;;;4766446;30;20571;-81
2022/05/22 02:56:09;;;;;;;3.97;1.10;;;11.50;99.90;;;;;;4768296;30;20698;-81
2022/05/22 02:58:35;;;;;;;1.60;1.10;;;11.50;99.90;;;;;;4769932;30;20207;-81
2022/05/22 03:01:01;;;;;;;4.33;1.37;;;11.40;99.90;;;;;;4769841;30;20707;-81
2022/05/22 03:03:26;;;;;;;5.83;1.30;;;11.30;99.90;;;;;;4769620;30;20382;-81
2022/05/22 03:08:36;;;;;;;5.38;1.30;;;11.20;99.90;;;;;;4756388;30;20690;-81
2022/05/22 03:11:05;;;;;;;2.23;1.10;;;11.20;99.90;;;;;;4769673;30;20196;-81
2022/05/22 03:13:31;;;;;;;6.93;1.23;;;11.20;99.90;;;;;;4755904;30;20181;-81
2022/05/22 03:15:57;;;;;;;3.73;1.50;;;11.20;99.90;;;;;;4756053;30;20268;-81
2022/05/22 03:18:23;;;;;;;6.10;1.17;;;11.10;99.90;;;;;;4787234;30;20274;-81
2022/05/22 03:20:49;;;;;;;5.37;1.30;;;11.10;99.90;;;;;;4805414;29;20209;-81
2022/05/22 03:23:15;;;;;;;4.57;1.63;;;11.10;99.90;;;;;;4791619;29;20249;-81
2022/05/22 03:25:45;;;;;;;3.23;1.30;;;11.00;99.90;;;;;;4791408;29;20268;-81
2022/05/22 03:28:10;;;;;;;4.30;1.50;;;11.00;99.90;;;;;;4805299;29;20502;-82
2022/05/22 03:30:36;;;;;;;3.20;1.10;;;11.00;99.90;;;;;;4805401;29;20195;-81
2022/05/22 03:33:02;;;;;;;4.40;1.50;;;10.90;99.90;;;;;;4790857;29;20187;-81
2022/05/22 03:35:28;;;;;;;3.03;1.37;;;10.90;99.90;;;;;;4805060;29;20187;-82
2022/05/22 03:37:53;;;;;;;5.73;1.50;;;11.00;99.90;;;;;;4804215;29;20190;-81
2022/05/22 03:40:19;;;;;;;4.22;1.48;;;11.00;99.90;;;;;;4791319;29;20183;-81
2022/05/22 03:42:45;;;;;;;3.90;1.20;;;11.00;99.90;;;;;;4805111;29;20183;-83
2022/05/22 03:45:11;;;;;;;4.70;1.40;;;11.00;99.90;;;;;;4791069;29;20360;-80
2022/05/22 03:47:38;;;;;;;4.70;1.27;;;11.00;99.90;;;;;;4804577;29;20198;-81
2022/05/22 03:50:07;;;;;;;5.93;1.43;;;11.00;99.90;;;;;;4804937;29;20207;-81
2022/05/22 03:52:35;;;;;;;5.30;1.30;;;11.00;99.90;;;;;;4804731;29;20275;-81
2022/05/22 03:55:02;;;;;;;3.70;1.27;;;11.00;99.90;;;;;;4804722;29;20226;-81
2022/05/22 03:57:27;;;;;;;3.25;1.27;;;11.00;99.90;;;;;;4791207;29;20175;-81
2022/05/22 03:59:53;;;;;;;3.05;1.27;;;11.00;99.90;;;;;;4804719;29;20191;-81
2022/05/22 04:02:19;;;;;;;6.65;1.73;;;11.00;99.90;;;;;;4790818;29;20179;-81
2022/05/22 04:04:44;;;;;;;5.65;1.27;;;11.10;99.90;;;;;;4790326;29;20666;-81
2022/05/22 04:07:11;;;;;;;3.20;1.40;;;11.00;99.90;;;;;;4803562;29;20207;-80
2022/05/22 04:09:36;;;;;;;4.18;1.27;;;11.00;99.90;;;;;;4804906;29;20215;-83
2022/05/22 04:12:06;;;;;;;6.40;1.40;;;10.90;99.90;;;;;;4804505;29;20194;-82
2022/05/22 04:14:32;;;;;;;4.53;1.30;;;10.90;99.90;;;;;;4804263;29;20188;-81
2022/05/22 04:16:58;;;;;;;2.88;1.15;;;10.90;99.90;;;;;;4790511;29;20240;-81
2022/05/22 04:19:23;;;;;;;10.63;1.40;;;11.00;99.90;;;;;;4804194;29;20183;-82
2022/05/22 04:21:49;;;;;;;4.65;1.55;;;11.00;99.90;;;;;;4790586;29;20184;-81
2022/05/22 04:27:02;;;;;;;7.10;1.73;;;11.00;99.90;;;;;;4790402;30;20266;-81
2022/05/22 04:29:29;;;;;;;4.97;1.40;;;11.10;99.90;;;;;;4804022;29;20183;-81
2022/05/22 04:31:55;;;;;;;4.50;1.33;;;11.00;99.90;;;;;;4790473;29;20195;-81
2022/05/22 04:34:21;;;;;;;4.93;1.33;;;11.10;99.90;;;;;;4789912;29;20271;-81
2022/05/22 04:36:46;;;;;;;6.68;1.73;;;11.10;99.90;;;;;;4804021;29;20210;-81
2022/05/22 04:39:12;;;;;;;5.90;1.60;;;11.20;99.90;;;;;;4804109;29;20183;-84
2022/05/22 04:41:37;;;;;;;8.25;1.70;;;11.20;99.90;;;;;;4790188;29;20194;-81
2022/05/22 04:44:03;;;;;;;3.88;1.50;;;11.30;99.90;;;;;;4803670;29;20190;-80
2022/05/22 04:46:29;;;;;;;5.72;1.50;;;11.40;99.90;;;;;;4803874;29;20308;-81
2022/05/22 04:48:55;;;;;;;6.15;1.55;;;11.50;99.90;;;;;;4789816;29;20168;-81
2022/05/22 04:51:20;;;;;;;2.63;1.27;;;11.60;99.90;;;;;;4803871;29;20186;-82
2022/05/22 04:53:46;;;;;;;6.90;1.38;;;11.60;99.90;;;;;;4803601;29;20239;-81
2022/05/22 04:56:11;;;;;;;5.95;1.70;;;11.70;99.90;;;;;;4789875;29;20218;-81
2022/05/22 04:58:37;;;;;;;9.30;2.22;;;11.70;99.90;;;;;;4803543;29;20241;-81
2022/05/22 05:01:07;;;;;;;3.88;1.30;;;11.80;99.90;;;;;;4789929;29;20183;-81
2022/05/22 05:03:33;;;;;;;5.95;1.55;;;11.80;99.90;;;;;;4789507;29;20523;-81
2022/05/22 05:05:58;;;;;;;6.80;1.55;;;11.90;99.90;;;;;;4803621;29;20284;-81
2022/05/22 05:08:26;;;;;;;6.88;1.63;;;11.90;99.90;;;;;;4790062;29;20623;-81
2022/05/22 05:10:52;;;;;;;4.43;1.65;;;11.90;99.90;;;;;;4803502;29;20210;-81
2022/05/22 05:13:19;;;;;;;3.53;1.52;;;12.00;99.90;;;;;;4788383;30;20533;-81
2022/05/22 05:15:45;;;;;;;4.45;1.38;;;12.00;99.90;;;;;;4789832;29;20262;-81
2022/05/22 05:18:12;;;;;;;8.88;1.60;;;12.00;99.90;;;;;;4789139;29;20226;-83
2022/05/22 05:20:38;;;;;;;6.15;1.60;;;12.10;99.90;;;;;;4789658;29;20647;-82
2022/05/22 05:23:05;;;;;;;4.85;1.40;;;12.10;99.90;;;;;;4789920;29;20186;-83
2022/05/22 05:25:31;;;;;;;4.22;1.75;;;12.10;99.90;;;;;;4803037;29;20222;-81
2022/05/22 05:27:56;;;;;;;6.68;1.58;;;12.10;99.90;;;;;;4803323;29;20537;-81
2022/05/22 05:30:25;;;;;;;5.97;1.80;;;12.20;99.90;;;;;;4789696;29;20206;-81
2022/05/22 05:32:55;;;;;;;4.53;1.63;;;12.20;99.90;;;;;;4802989;29;20497;-81
2022/05/22 05:35:21;;;;;;;8.32;2.00;;;12.30;99.90;;;;;;4789302;29;20271;-82
2022/05/22 05:37:47;;;;;;;7.82;1.55;;;12.30;99.90;;;;;;4803149;29;20286;-82
2022/05/22 05:40:13;;;;;;;5.85;1.80;;;12.40;99.90;;;;;;4803315;29;20188;-83
2022/05/22 05:42:40;;;;;;;9.88;2.00;;;12.50;99.90;;;;;;4803301;29;20190;-82
2022/05/22 05:45:11;;;;;;;11.23;1.85;;;12.50;99.90;;;;;;4802989;29;20223;-82
2022/05/22 05:47:36;;;;;;;9.55;1.85;;;12.50;99.90;;;;;;4789378;29;20184;-82
2022/05/22 05:50:03;;;;;;;5.43;1.92;;;12.50;99.90;;;;;;4789079;29;20227;-81
2022/05/22 05:52:29;;;;;;;9.98;1.88;;;12.60;99.90;;;;;;4789025;29;20227;-82
2022/05/22 05:54:55;;;;;;;12.82;1.83;;;12.60;99.90;;;;;;4802822;29;20190;-81
2022/05/22 05:57:21;;;;;;;6.75;1.92;;;12.60;99.90;;;;;;4803074;29;20187;-81
2022/05/22 05:59:46;;;;;;;9.82;2.10;;;12.70;99.90;;;;;;4803123;29;20215;-81
2022/05/22 06:02:15;;;;;;;4.05;1.42;;;12.70;99.90;;;;;;4789296;29;20179;-81
2022/05/22 06:04:42;;;;;;;5.38;1.65;;;12.80;99.90;;;;;;4788762;29;20214;-82
2022/05/22 06:07:09;;;;;;;7.80;2.33;;;12.80;99.90;;;;;;4802786;29;20223;-82
2022/05/22 06:09:35;;;;;;;7.78;1.88;;;12.80;99.90;;;;;;4802875;29;20175;-82
2022/05/22 06:12:01;;;;;;;6.90;1.65;;;12.80;99.90;;;;;;4803008;29;20191;-82
2022/05/22 06:14:27;;;;;;;9.05;1.98;;;12.80;99.90;;;;;;4802847;29;20564;-82
2022/05/22 06:16:52;;;;;;;11.00;1.77;;;12.90;99.90;;;;;;4802862;29;20766;-82
2022/05/22 06:19:54;;;;;;;6.88;1.63;;;13.00;99.90;;;;;;4788830;29;20186;-82
2022/05/22 06:22:07;;;;;;;5.63;1.77;;;13.00;99.90;;;;;;4788905;29;20233;-82
2022/05/22 06:24:36;;;;;;;11.73;2.00;;;13.20;99.90;;;;;;4788836;29;20179;-82
2022/05/22 06:27:03;;;;;;;10.57;1.92;;;13.30;99.90;;;;;;4802653;29;20281;-82
2022/05/22 06:29:29;;;;;;;9.27;2.20;;;13.40;99.90;;;;;;4788748;29;20207;-81
2022/05/22 06:31:54;;;;;;;10.50;2.67;;;13.40;99.90;;;;;;4805457;29;20229;-80
2022/05/22 06:34:23;;;;;;;5.18;2.00;;;13.50;99.90;;;;;;4805797;29;20183;-81
2022/05/22 06:36:52;;;;;;;6.40;1.95;;;13.50;99.90;;;;;;4788488;29;20192;-81
2022/05/22 06:42:02;;;;;;;4.70;1.90;;;13.50;99.90;;;;;;4774520;30;20180;-82
2022/05/22 06:44:28;;;;;;;9.10;1.77;;;13.60;99.90;;;;;;4787798;30;20188;-81
2022/05/22 06:46:54;;;;;;;8.68;1.88;;;13.60;99.90;;;;;;4787868;29;20282;-82
2022/05/22 06:49:19;;;;;;;9.32;1.88;;;13.70;99.90;;;;;;4787784;30;20184;-82
2022/05/22 06:51:46;;;;;;;8.00;2.05;;;13.80;99.90;;;;;;4772993;30;20188;-86
2022/05/22 06:54:12;;;;;;;7.85;2.35;;;14.00;99.90;;;;;;4774272;30;20186;-85
2022/05/22 06:56:38;;;;;;;7.22;2.47;;;14.20;99.90;;;;;;4774540;30;20191;-84
2022/05/22 06:59:03;;;;;;;8.32;2.10;;;14.40;99.90;;;;;;4774057;30;20230;-82
2022/05/22 07:01:29;;;;;;;6.80;1.75;;;14.50;99.90;;;;;;4788676;29;20219;-85
2022/05/22 07:03:55;;;;;;;7.15;1.75;;;14.60;99.90;;;;;;4774785;30;20192;-86
2022/05/22 07:06:20;;;;;;;9.13;2.25;;;14.60;99.90;;;;;;4789112;30;20224;-83
2022/05/22 07:08:46;;;;;;;10.23;2.03;;;14.60;99.90;;;;;;4808466;29;20270;-82
2022/05/22 07:13:55;;;;;;;9.30;2.20;;;14.70;99.90;;;;;;4792748;30;20182;-82
2022/05/22 07:16:21;;;;;;;11.30;2.00;;;15.00;99.90;;;;;;4794892;29;20187;-85
2022/05/22 07:18:47;;;;;;;6.57;2.03;;;15.20;99.90;;;;;;4808273;29;20183;-88
2022/05/22 07:21:12;;;;;;;4.40;1.10;;;15.40;99.90;;;;;;4794662;29;20258;-88
2022/05/22 07:23:38;;;;;;;5.18;1.50;;;15.60;99.90;;;;;;4806265;29;20187;-81
2022/05/22 07:26:05;;;;;;;6.30;1.90;;;15.40;99.90;;;;;;4805170;29;20223;-82
2022/05/22 07:28:31;;;;;;;5.53;1.63;;;15.60;99.90;;;;;;4791590;29;20179;-84
2022/05/22 07:30:57;;;;;;;8.75;1.83;;;15.60;99.90;;;;;;4791556;29;20184;-83
2022/05/22 07:33:23;;;;;;;7.93;1.92;;;15.50;99.90;;;;;;4791401;29;20179;-83
2022/05/22 07:35:56;;;;;;;7.38;2.10;;;15.50;99.90;;;;;;4791266;29;20634;-82
2022/05/22 07:38:23;;;;;;;5.75;1.63;;;15.50;99.90;;;;;;4791353;29;20195;-82
2022/05/22 07:40:51;;;;;;;6.18;1.73;;;15.60;99.90;;;;;;4805226;29;20183;-82
2022/05/22 07:43:16;;;;;;;7.28;1.63;;;15.80;99.90;;;;;;4790775;29;20194;-83
2022/05/22 07:45:43;;;;;;;4.40;1.50;;;16.00;99.90;;;;;;4796876;29;20222;-81
2022/05/22 07:48:08;;;;;;;4.88;1.20;;;16.10;99.90;;;;;;4778724;30;20568;-81
2022/05/22 07:50:34;;;;;;;4.80;1.55;;;16.40;99.90;;;;;;4804530;29;20191;-82
2022/05/22 07:53:01;;;;;;;5.30;1.70;;;16.50;99.90;;;;;;4785336;30;20227;-83
2022/05/22 07:55:27;;;;;;;3.92;1.60;;;16.30;99.90;;;;;;4789666;30;20249;-81
2022/05/22 07:57:52;;;;;;;4.50;1.50;;;16.30;99.90;;;;;;4790734;29;20187;-82
2022/05/22 08:00:20;;;;;;;5.03;1.65;;;16.20;99.90;;;;;;4804989;29;20195;-80
2022/05/22 08:02:47;;;;;;;4.97;1.60;;;16.40;99.90;;;;;;4789543;30;20184;-81
2022/05/22 08:05:17;;;;;;;4.88;1.55;;;16.70;99.90;;;;;;4787092;29;20203;-82
2022/05/22 08:07:43;;;;;;;7.43;1.77;;;16.70;99.90;;;;;;4796655;29;20580;-81
2022/05/22 08:10:10;;;;;;;4.60;1.55;;;16.70;99.90;;;;;;4790377;30;20251;-81
2022/05/22 08:12:42;;;;;;;7.45;1.60;;;16.50;99.90;;;;;;4789519;30;20286;-82
2022/05/22 08:15:09;;;;;;;3.90;1.58;;;16.40;99.90;;;;;;4789320;30;20245;-83
2022/05/22 08:17:38;;;;;;;7.55;1.67;;;16.50;99.90;;;;;;4804689;29;20344;-84
2022/05/22 08:20:12;;;;;;;3.90;1.25;;;16.70;99.90;;;;;;4789304;30;20176;-86
2022/05/22 08:22:40;;;;;;;4.43;1.80;;;16.50;99.90;;;;;;4789334;29;20183;-85
2022/05/22 08:25:07;;;;;;;7.15;1.60;;;16.40;99.90;;;;;;4804345;29;20184;-83
2022/05/22 08:27:34;;;;;;;5.28;1.77;;;16.60;99.90;;;;;;4789577;30;20195;-85
2022/05/22 08:30:00;;;;;;;3.47;1.58;;;16.80;99.90;;;;;;4789516;30;20620;-85
2022/05/22 08:32:26;;;;;;;5.85;1.77;;;16.80;99.90;;;;;;4789358;30;20187;-83
2022/05/22 08:34:54;;;;;;;3.55;1.65;;;16.70;99.90;;;;;;4790447;29;20190;-82
2022/05/22 08:37:20;;;;;;;5.10;1.45;;;16.50;99.90;;;;;;4796499;29;20184;-85
2022/05/22 08:39:46;;;;;;;4.93;1.27;;;16.10;99.90;;;;;;4773099;30;20260;-81
2022/05/22 08:42:19;;;;;;;4.28;1.30;;;15.90;99.90;;;;;;4778883;30;20601;-89
2022/05/22 08:44:51;;;;;;;5.03;1.40;;;15.90;99.90;;;;;;4790211;29;20215;-87
2022/05/22 08:47:37;;;;;;;5.10;1.42;;;16.20;99.90;;;;;;4804039;29;20222;-82
2022/05/22 08:50:11;;;;;;;6.00;1.98;;;16.70;99.90;;;;;;4763498;30;20179;-84
2022/05/22 08:52:47;;;;;;;2.95;1.23;;;17.10;99.90;;;;;;4803211;29;20605;-81
2022/05/22 08:55:19;;;;;;;4.97;1.30;;;17.10;99.90;;;;;;4784293;30;20612;-81
2022/05/22 09:00:42;;;;;;;4.00;1.40;;;16.50;99.90;;;;;;4774557;30;20214;-80
2022/05/22 09:03:18;;;;;;;5.53;1.40;;;16.70;99.90;;;;;;4763987;29;20639;-80
2022/05/22 09:05:48;;;;;;;4.28;1.58;;;17.00;99.90;;;;;;4753873;30;20287;-81
2022/05/22 09:08:20;;;;;;;6.10;1.77;;;17.40;99.90;;;;;;4780340;30;20205;-81
2022/05/22 09:11:15;;;;;;;3.45;1.52;;;17.50;99.90;;;;;;4776436;29;20192;-80
2022/05/22 09:14:10;;;;;;;3.65;1.40;;;17.30;99.90;;;;;;4772332;30;20253;-84
2022/05/22 09:16:42;;;;;;;5.05;1.52;;;17.00;99.90;;;;;;4803238;29;20191;-81
2022/05/22 09:19:37;;;;;;;3.38;1.50;;;16.90;99.90;;;;;;4785302;30;20282;-80
2022/05/22 09:22:03;;;;;;;5.47;1.30;;;16.60;99.90;;;;;;4783700;29;20197;-81
2022/05/22 09:24:44;;;;;;;2.35;1.20;;;16.50;99.90;;;;;;4789204;29;20191;-81
2022/05/22 09:27:21;;;;;;;4.18;1.20;;;16.40;99.90;;;;;;4794681;29;20227;-81
2022/05/22 09:29:59;;;;;;;4.00;1.15;;;16.80;99.90;;;;;;4787037;29;20195;-80
2022/05/22 09:32:35;;;;;;;3.25;1.00;;;17.00;99.90;;;;;;4780925;30;20258;-82
2022/05/22 09:35:03;;;;;;;1.42;1.02;;;17.00;98.60;;;;;;4780542;30;20202;-81
2022/05/22 09:37:40;;;;;;;2.30;0.98;;;16.80;99.90;;;;;;4772759;30;20194;-80
2022/05/22 09:40:45;;;;;;;3.03;1.40;;;16.80;99.90;;;;;;4802998;29;20179;-80
2022/05/22 09:43:36;;;;;;;4.82;1.25;;;16.60;99.90;;;;;;4801643;29;20639;-83
2022/05/22 09:46:29;;;;;;;6.72;1.20;;;16.50;98.60;;;;;;4802777;29;20652;-80
2022/05/22 09:49:33;;;;;;;2.67;0.93;;;16.90;98.60;;;;;;4788379;30;20179;-83
2022/05/22 09:52:38;;;;;;;3.40;0.90;;;17.40;97.90;;;;;;4820444;29;20321;-81
2022/05/22 09:55:46;;;;;;;2.47;0.85;;;17.40;99.90;;;;;;4823413;29;20234;-83
2022/05/22 09:58:34;;;;;;;6.50;1.23;;;17.20;97.90;;;;;;4741895;30;20192;-82
2022/05/22 10:01:13;;;;;;;5.03;1.00;;;17.00;99.90;;;;;;4753993;30;20261;-82
2022/05/22 10:04:04;;;;;;;2.03;0.90;;;17.00;99.90;;;;;;4752169;30;20663;-82
2022/05/22 10:06:51;;;;;;;2.92;1.17;;;17.10;99.90;;;;;;4773405;30;20270;-86
2022/05/22 10:09:36;;;;;;;1.95;1.23;;;17.10;99.20;;;;;;4774522;30;20195;-80
2022/05/22 10:12:38;;;;;;;2.53;0.98;;;17.40;99.80;;;;;;4775101;30;20251;-81
2022/05/22 10:15:15;;;;;;;4.15;1.10;;;17.70;97.80;;;;;;4790904;29;20191;-81
2022/05/22 10:18:18;;;;;;;2.25;0.95;;;17.60;98.40;;;;;;4769982;30;20188;-82
2022/05/22 10:21:11;;;;;;;3.60;0.90;;;17.60;99.20;;;;;;4773587;30;20187;-82
2022/05/22 10:23:51;;;;;;;3.15;1.30;;;17.90;96.50;;;;;;4784849;30;20187;-81
2022/05/22 10:26:48;;;;;;;3.35;1.02;;;18.00;96.70;;;;;;4800018;29;20231;-81
2022/05/22 10:29:30;;;;;;;5.30;1.33;;;17.80;97.20;;;;;;4773477;29;20192;-83
2022/05/22 10:32:18;;;;;;;2.95;0.90;;;17.60;99.30;;;;;;4773621;30;20187;-80
2022/05/22 10:34:59;;;;;;;5.55;1.20;;;17.50;98.60;;;;;;4787314;30;20188;-81
2022/05/22 10:37:40;;;;;;;2.92;1.17;;;17.70;99.90;;;;;;4778393;30;20647;-80
2022/05/22 10:40:08;;;;;;;3.80;1.13;;;18.20;97.10;;;;;;4784810;29;20251;-80
2022/05/22 10:42:46;;;;;;;2.70;1.08;;;18.60;97.50;;;;;;4774595;30;20639;-85
2022/05/22 10:45:21;;;;;;;3.92;1.23;;;18.80;95.10;;;;;;4788371;29;20521;-83
2022/05/22 10:47:48;;;;;;;2.92;1.13;;;18.80;94.40;;;;;;4773324;29;20295;-82
2022/05/22 10:50:24;;;;;;;3.30;1.10;;;19.10;94.50;;;;;;4788216;30;20208;-83
2022/05/22 10:52:50;;;;;;;1.17;0.65;;;19.30;95.30;;;;;;4774550;30;20235;-82
2022/05/22 10:55:29;;;;;;;7.10;1.00;;;18.90;93.80;;;;;;4788347;29;20188;-83
2022/05/22 10:58:04;;;;;;;3.13;0.93;;;18.50;94.00;;;;;;4788322;29;20188;-82
2022/05/22 11:00:32;;;;;;;3.80;0.88;;;18.20;95.80;;;;;;4788325;29;20570;-84
2022/05/22 11:03:12;;;;;;;2.42;0.70;;;18.30;97.10;;;;;;4774690;30;20180;-85
2022/05/22 11:05:39;;;;;;;3.58;1.00;;;18.70;97.10;;;;;;4786514;29;20276;-87
2022/05/22 11:08:05;;;;;;;2.95;1.10;;;19.20;97.70;;;;;;4786260;30;20206;-83
2022/05/22 11:10:38;;;;;;;2.03;0.70;;;19.50;97.30;;;;;;4791904;29;20706;-84
2022/05/22 11:13:10;;;;;;;2.65;0.88;;;19.60;96.20;;;;;;4794379;29;20283;-81
2022/05/22 11:15:40;;;;;;;3.55;0.70;;;19.80;94.00;;;;;;4787285;29;20290;-81
2022/05/22 11:18:23;;;;;;;3.22;0.90;;;20.00;93.20;;;;;;4788107;29;20190;-83
2022/05/22 11:20:56;;;;;;;4.82;0.90;;;20.10;93.60;;;;;;4786942;30;20632;-84
2022/05/22 11:23:37;;;;;;;2.78;0.80;;;19.90;93.70;;;;;;4774497;30;20188;-84
2022/05/22 11:26:36;;;;;;;1.45;0.60;;;19.60;94.00;;;;;;4773920;29;20210;-87
2022/05/22 11:29:11;;;;;;;3.20;0.98;;;19.20;95.10;;;;;;4756959;30;20690;-83
2022/05/22 11:31:58;;;;;;;1.10;0.65;;;18.80;94.70;;;;;;4756078;30;20560;-80
2022/05/22 11:34:24;;;;;;;4.80;0.77;;;18.60;96.10;;;;;;4755883;30;20186;-81
2022/05/22 11:37:13;;;;;;;2.13;0.63;;;19.00;95.60;;;;;;4758830;30;20248;-82
2022/05/22 11:40:02;;;;;;;1.33;0.60;;;19.50;93.50;;;;;;4773011;30;20180;-84
2022/05/22 11:42:35;;;;;;;3.83;0.77;;;19.90;92.80;;;;;;4772994;30;20518;-80
2022/05/22 11:45:32;;;;;;;1.55;0.65;;;20.10;92.40;;;;;;4786102;29;20184;-82
2022/05/22 11:48:14;;;;;;;3.38;0.68;;;20.10;93.50;;;;;;4773282;30;20231;-84
2022/05/22 11:50:45;;;;;;;4.43;1.05;;;19.90;91.40;;;;;;4771391;30;20188;-81
2022/05/22 11:53:41;;;;;;;1.48;0.60;;;20.00;92.80;;;;;;4769254;30;20243;-80
2022/05/22 11:56:21;;;;;;;2.63;1.02;;;19.70;92.10;;;;;;4773024;30;20184;-83
2022/05/22 11:59:12;;;;;;;3.88;0.80;;;19.50;91.80;;;;;;4773221;30;20198;-82
2022/05/22 12:01:41;;;;;;;3.75;0.75;;;19.30;92.90;;;;;;4772935;30;20537;-81
2022/05/22 12:04:40;;;;;;;3.28;0.98;;;19.20;92.80;;;;;;4772677;30;20172;-81
2022/05/22 12:07:47;;;;;;;3.08;0.80;;;18.80;93.10;;;;;;4778701;29;20225;-80
2022/05/22 12:10:16;;;;;;;1.55;0.68;;;18.60;94.20;;;;;;4804586;29;20187;-80
2022/05/22 12:12:45;;;;;;;2.92;0.95;;;18.30;93.50;;;;;;4789590;29;20183;-81
2022/05/22 12:15:23;;;;;;;3.08;0.85;;;18.40;94.60;;;;;;4789409;29;20263;-80
2022/05/22 12:17:49;;;;;;;2.10;0.90;;;18.70;95.70;;;;;;4790680;29;20176;-81
2022/05/22 12:20:26;;;;;;;2.97;0.70;;;19.10;95.20;;;;;;4789064;29;20570;-80
2022/05/22 12:23:10;;;;;;;2.00;0.90;;;19.30;95.30;;;;;;4790405;29;20183;-81
2022/05/22 12:25:44;;;;;;;1.67;0.60;;;19.70;94.20;;;;;;4804138;29;20218;-81
2022/05/22 12:28:27;;;;;;;2.92;0.88;;;20.00;93.30;;;;;;4803456;29;20202;-80
2022/05/22 12:30:57;;;;;;;1.33;0.50;;;19.70;91.10;;;;;;4790455;29;20292;-81
2022/05/22 12:33:24;;;;;;;1.20;0.65;;;19.60;92.90;;;;;;4790491;29;20175;-81
2022/05/22 12:35:52;;;;;;;4.85;0.80;;;19.50;93.40;;;;;;4789903;29;20284;-80
2022/05/22 12:38:18;;;;;;;1.20;0.50;;;19.40;91.60;;;;;;4804116;29;20199;-81
2022/05/22 12:41:14;;;;;;;1.25;0.47;;;19.10;91.30;;;;;;4790330;29;20742;-81
2022/05/22 12:43:40;;;;;;;1.48;0.70;;;18.90;91.70;;;;;;4788901;30;20184;-84
2022/05/22 12:46:09;;;;;;;1.65;0.60;;;18.80;92.60;;;;;;4804007;29;20242;-81
2022/05/22 12:48:43;;;;;;;2.97;0.63;;;18.70;93.50;;;;;;4790095;29;20639;-81
2022/05/22 12:51:21;;;;;;;1.98;0.70;;;19.10;93.80;;;;;;4770014;29;20197;-80
2022/05/22 12:53:49;;;;;;;1.25;0.57;;;19.60;91.30;;;;;;4785080;29;20231;-81
2022/05/22 12:56:29;;;;;;;1.83;0.60;;;19.90;92.00;;;;;;4771672;30;20275;-81
2022/05/22 12:58:57;;;;;;;2.33;0.60;;;20.30;91.80;;;;;;4771929;30;20519;-79
2022/05/22 13:01:27;;;;;;;2.45;0.73;;;20.80;90.90;;;;;;4772019;30;20640;-81
2022/05/22 13:03:56;;;;;;;1.98;0.70;;;21.00;90.50;;;;;;4769988;29;20192;-82
2022/05/22 13:06:26;;;;;;;1.95;0.50;;;21.20;92.20;;;;;;4784545;29;20216;-83
2022/05/22 13:09:07;;;;;;;1.02;0.57;;;21.40;92.30;;;;;;4783028;29;20193;-81
2022/05/22 13:11:51;;;;;;;1.13;0.57;;;21.60;88.40;;;;;;4783356;30;20509;-80
2022/05/22 13:14:27;;;;;;;1.27;0.47;;;21.50;86.00;;;;;;4784699;30;20528;-81
2022/05/22 13:16:54;;;;;;;2.45;0.57;;;21.00;84.80;;;;;;4771969;30;20180;-81
2022/05/22 13:19:26;;;;;;;1.08;0.50;;;20.60;84.80;;;;;;4785027;29;20188;-81
2022/05/22 13:21:53;;;;;;;1.25;0.60;;;20.20;90.40;;;;;;4785429;29;20527;-82
2022/05/22 13:24:18;;;;;;;1.33;0.50;;;20.30;90.30;;;;;;4785148;30;20269;-82
2022/05/22 13:27:01;;;;;;;1.08;0.32;;;20.60;91.30;;;;;;4771361;30;20212;-82